DAL963 KMSP-KSFO
Flight info
| Callsign | DAL963 |
|---|---|
| Flight time | 1h 31m |
| Altitude | 36000 |
| Route | SCHEP1 RXANN TEYOU LLUKY CYS J148 OAL INYOE DYAMD5 |
| Aircraft | B738/M-SDE2E3FGHIRWXY/LB1 |
Departure
| Time | 2026-05-05 02:54 |
|---|---|
| Airport | Minneapolis–Saint Paul International Airport / Wold–Chamberlain Field (KMSP) |
Arrival
| Time | 2026-05-05 04:26 |
|---|---|
| Airport | San Francisco International Airport (KSFO) |
| Time | Latitude | Longitude | Altitude | Speed | Heading |
|---|---|---|---|---|---|
| 2026-05-05 02:32 | 44.88315 | -93.21572 | 824 ft | 0 kts | 19° |
| 2026-05-05 02:45 | 44.88301 | -93.21579 | 821 ft | 3 kts | 19° |
| 2026-05-05 02:45 | 44.88283 | -93.21587 | 822 ft | 3 kts | 19° |
| 2026-05-05 02:46 | 44.88266 | -93.21596 | 822 ft | 3 kts | 21° |
| 2026-05-05 02:46 | 44.88253 | -93.21613 | 819 ft | 3 kts | 88° |
| 2026-05-05 02:46 | 44.88254 | -93.21627 | 823 ft | 0 kts | 110° |
| 2026-05-05 02:49 | 44.88249 | -93.21611 | 818 ft | 5 kts | 112° |
| 2026-05-05 02:49 | 44.88223 | -93.21551 | 823 ft | 12 kts | 129° |
| 2026-05-05 02:50 | 44.88149 | -93.21476 | 822 ft | 14 kts | 154° |
| 2026-05-05 02:50 | 44.88061 | -93.21420 | 821 ft | 14 kts | 155° |
| 2026-05-05 02:50 | 44.87997 | -93.21346 | 824 ft | 11 kts | 122° |
| 2026-05-05 02:50 | 44.87961 | -93.21250 | 824 ft | 11 kts | 117° |
| 2026-05-05 02:51 | 44.87918 | -93.21137 | 824 ft | 14 kts | 118° |
| 2026-05-05 02:51 | 44.87868 | -93.21010 | 823 ft | 15 kts | 121° |
| 2026-05-05 02:51 | 44.87810 | -93.20873 | 823 ft | 20 kts | 121° |
| 2026-05-05 02:51 | 44.87727 | -93.20686 | 822 ft | 23 kts | 122° |
| 2026-05-05 02:52 | 44.87644 | -93.20501 | 824 ft | 22 kts | 122° |
| 2026-05-05 02:52 | 44.87564 | -93.20320 | 822 ft | 21 kts | 122° |
| 2026-05-05 02:52 | 44.87503 | -93.20174 | 823 ft | 10 kts | 120° |
| 2026-05-05 02:52 | 44.87466 | -93.20091 | 825 ft | 6 kts | 129° |
| 2026-05-05 02:53 | 44.87429 | -93.20071 | 826 ft | 6 kts | 188° |
| 2026-05-05 02:53 | 44.87398 | -93.20110 | 827 ft | 6 kts | 229° |
| 2026-05-05 02:53 | 44.87379 | -93.20194 | 825 ft | 15 kts | 284° |
| 2026-05-05 02:53 | 44.87552 | -93.20604 | 822 ft | 82 kts | 301° |
| 2026-05-05 02:54 | 44.87956 | -93.21544 | 821 ft | 140 kts | 301° |
| 2026-05-05 02:54 | 44.88545 | -93.22904 | 965 ft | 178 kts | 302° |
| 2026-05-05 02:54 | 44.89115 | -93.24434 | 1844 ft | 176 kts | 292° |
| 2026-05-05 02:54 | 44.89415 | -93.26135 | 2554 ft | 179 kts | 279° |
| 2026-05-05 02:55 | 44.89388 | -93.27871 | 3323 ft | 177 kts | 266° |
| 2026-05-05 02:55 | 44.89031 | -93.29522 | 4038 ft | 179 kts | 248° |
| 2026-05-05 02:55 | 44.88295 | -93.31088 | 4275 ft | 203 kts | 239° |
| 2026-05-05 02:55 | 44.87402 | -93.32739 | 4456 ft | 221 kts | 238° |
| 2026-05-05 02:56 | 44.86428 | -93.34513 | 4712 ft | 235 kts | 238° |
| 2026-05-05 02:56 | 44.85410 | -93.36365 | 5114 ft | 247 kts | 238° |
| 2026-05-05 02:56 | 44.84328 | -93.38350 | 5521 ft | 260 kts | 238° |
| 2026-05-05 02:56 | 44.83225 | -93.40373 | 6273 ft | 259 kts | 238° |
| 2026-05-05 02:57 | 44.82135 | -93.42378 | 7007 ft | 259 kts | 238° |
| 2026-05-05 02:57 | 44.81033 | -93.44417 | 7623 ft | 262 kts | 238° |
| 2026-05-05 02:57 | 44.79930 | -93.46462 | 8353 ft | 262 kts | 239° |
| 2026-05-05 02:57 | 44.78824 | -93.48516 | 9037 ft | 264 kts | 238° |
| 2026-05-05 02:58 | 44.77713 | -93.50581 | 9754 ft | 264 kts | 238° |
| 2026-05-05 02:58 | 44.76608 | -93.52639 | 10275 ft | 271 kts | 238° |
| 2026-05-05 02:58 | 44.75431 | -93.54845 | 10383 ft | 293 kts | 238° |
| 2026-05-05 02:58 | 44.74169 | -93.57206 | 10557 ft | 311 kts | 238° |
| 2026-05-05 02:59 | 44.72827 | -93.59714 | 10702 ft | 329 kts | 238° |
| 2026-05-05 02:59 | 44.71414 | -93.62346 | 10915 ft | 344 kts | 237° |
| 2026-05-05 02:59 | 44.69957 | -93.65047 | 11490 ft | 346 kts | 237° |
| 2026-05-05 02:59 | 44.68504 | -93.67734 | 12095 ft | 346 kts | 237° |
| 2026-05-05 03:00 | 44.67042 | -93.70438 | 12584 ft | 350 kts | 237° |
| 2026-05-05 03:00 | 44.65566 | -93.73169 | 13107 ft | 352 kts | 237° |
| 2026-05-05 03:00 | 44.64087 | -93.75905 | 13678 ft | 352 kts | 237° |
| 2026-05-05 03:00 | 44.62606 | -93.78642 | 14194 ft | 352 kts | 237° |
| 2026-05-05 03:01 | 44.61129 | -93.81371 | 14786 ft | 350 kts | 238° |
| 2026-05-05 03:01 | 44.59672 | -93.84060 | 15279 ft | 351 kts | 238° |
| 2026-05-05 03:01 | 44.58192 | -93.86791 | 15773 ft | 351 kts | 238° |
| 2026-05-05 03:01 | 44.56714 | -93.89517 | 16366 ft | 349 kts | 239° |
| 2026-05-05 03:02 | 44.55249 | -93.92215 | 16941 ft | 347 kts | 239° |
| 2026-05-05 03:02 | 44.53783 | -93.94911 | 17367 ft | 348 kts | 239° |
| 2026-05-05 03:02 | 44.52101 | -93.98007 | 17815 ft | 351 kts | 239° |
| 2026-05-05 03:02 | 44.46178 | -94.08871 | 19521 ft | 351 kts | 240° |
| 2026-05-05 03:03 | 44.40158 | -94.19878 | 20877 ft | 358 kts | 240° |
| 2026-05-05 03:03 | 44.34083 | -94.30929 | 22378 ft | 359 kts | 240° |
| 2026-05-05 03:03 | 44.27903 | -94.42147 | 23220 ft | 372 kts | 240° |
| 2026-05-05 03:03 | 44.21618 | -94.53602 | 24389 ft | 370 kts | 240° |
| 2026-05-05 03:04 | 44.15399 | -94.65292 | 25098 ft | 379 kts | 240° |
| 2026-05-05 03:04 | 44.09052 | -94.77098 | 25810 ft | 385 kts | 240° |
| 2026-05-05 03:04 | 44.02550 | -94.89124 | 26549 ft | 389 kts | 239° |
| 2026-05-05 03:04 | 43.96100 | -95.01197 | 27371 ft | 390 kts | 240° |
| 2026-05-05 03:05 | 43.89758 | -95.13482 | 28110 ft | 390 kts | 240° |
| 2026-05-05 03:05 | 43.83431 | -95.25618 | 29039 ft | 389 kts | 240° |
| 2026-05-05 03:05 | 43.77137 | -95.37609 | 29958 ft | 386 kts | 240° |
| 2026-05-05 03:05 | 43.70912 | -95.49408 | 30989 ft | 376 kts | 240° |
| 2026-05-05 03:06 | 43.64677 | -95.61220 | 31201 ft | 385 kts | 240° |
| 2026-05-05 03:06 | 43.58355 | -95.73113 | 31960 ft | 381 kts | 240° |
| 2026-05-05 03:06 | 43.52139 | -95.84758 | 32817 ft | 374 kts | 240° |
| 2026-05-05 03:06 | 43.45903 | -95.96428 | 33026 ft | 381 kts | 240° |
| 2026-05-05 03:07 | 43.39560 | -96.08221 | 33577 ft | 380 kts | 240° |
| 2026-05-05 03:07 | 43.33305 | -96.19812 | 34215 ft | 376 kts | 240° |
| 2026-05-05 03:07 | 43.27597 | -96.31877 | 34178 ft | 377 kts | 252° |
| 2026-05-05 03:07 | 43.23526 | -96.44843 | 35009 ft | 364 kts | 251° |
| 2026-05-05 03:08 | 43.19320 | -96.57629 | 35072 ft | 372 kts | 251° |
| 2026-05-05 03:08 | 43.15071 | -96.70490 | 35220 ft | 377 kts | 251° |
| 2026-05-05 03:08 | 43.10739 | -96.83552 | 35659 ft | 375 kts | 251° |
| 2026-05-05 03:08 | 43.06413 | -96.96548 | 35925 ft | 374 kts | 251° |
| 2026-05-05 03:09 | 43.02067 | -97.09551 | 35939 ft | 379 kts | 251° |
| 2026-05-05 03:09 | 42.93151 | -97.36006 | 35908 ft | 383 kts | 250° |
| 2026-05-05 03:10 | 42.84219 | -97.62252 | 35894 ft | 378 kts | 250° |
| 2026-05-05 03:10 | 42.75509 | -97.87609 | 35888 ft | 366 kts | 250° |
| 2026-05-05 03:11 | 42.66835 | -98.12658 | 35923 ft | 369 kts | 250° |
| 2026-05-05 03:11 | 42.57908 | -98.38178 | 35896 ft | 379 kts | 250° |
| 2026-05-05 03:12 | 42.48766 | -98.64305 | 35913 ft | 383 kts | 254° |
| 2026-05-05 03:12 | 42.43864 | -98.91889 | 35894 ft | 374 kts | 259° |
| 2026-05-05 03:13 | 42.38892 | -99.19102 | 35872 ft | 371 kts | 259° |
| 2026-05-05 03:13 | 42.33949 | -99.45898 | 35887 ft | 369 kts | 259° |
| 2026-05-05 03:14 | 42.25078 | -99.93130 | 35912 ft | 367 kts | 259° |
| 2026-05-05 03:14 | 42.16525 | -100.37543 | 35928 ft | 367 kts | 259° |
| 2026-05-05 03:15 | 42.06049 | -100.90510 | 35952 ft | 365 kts | 258° |
| 2026-05-05 03:15 | 41.95341 | -101.43423 | 35883 ft | 368 kts | 258° |
| 2026-05-05 03:16 | 41.84301 | -101.96449 | 35884 ft | 370 kts | 257° |
| 2026-05-05 03:16 | 41.72962 | -102.49608 | 35890 ft | 372 kts | 257° |
| 2026-05-05 03:17 | 41.61281 | -103.02957 | 35835 ft | 374 kts | 256° |
| 2026-05-05 03:17 | 41.49404 | -103.55954 | 35839 ft | 376 kts | 256° |
| 2026-05-05 03:18 | 41.37072 | -104.09588 | 35869 ft | 379 kts | 256° |
| 2026-05-05 03:18 | 41.24479 | -104.63150 | 35959 ft | 378 kts | 256° |
| 2026-05-05 03:19 | 41.09554 | -105.44017 | 35850 ft | 376 kts | 258° |
| 2026-05-05 03:19 | 40.99590 | -105.97993 | 35791 ft | 379 kts | 258° |
| 2026-05-05 03:20 | 40.89472 | -106.52396 | 35835 ft | 381 kts | 257° |
| 2026-05-05 03:20 | 40.79028 | -107.06834 | 35803 ft | 383 kts | 257° |
| 2026-05-05 03:21 | 40.68325 | -107.61102 | 35851 ft | 387 kts | 256° |
| 2026-05-05 03:21 | 40.57225 | -108.15892 | 35776 ft | 388 kts | 256° |
| 2026-05-05 03:22 | 40.45834 | -108.70718 | 35752 ft | 388 kts | 255° |
| 2026-05-05 03:22 | 40.34300 | -109.24894 | 35802 ft | 382 kts | 254° |
| 2026-05-05 03:23 | 40.22632 | -109.78103 | 35720 ft | 375 kts | 253° |
| 2026-05-05 03:23 | 40.09822 | -110.30222 | 35728 ft | 383 kts | 245° |
| 2026-05-05 03:24 | 40.00205 | -110.55278 | 35994 ft | 385 kts | 244° |
| 2026-05-05 03:24 | 39.91164 | -110.80719 | 36038 ft | 397 kts | 246° |
| 2026-05-05 03:24 | 39.82104 | -111.07456 | 35854 ft | 406 kts | 245° |
| 2026-05-05 03:24 | 39.72543 | -111.34235 | 35756 ft | 404 kts | 244° |
| 2026-05-05 03:25 | 39.53669 | -111.86659 | 35729 ft | 399 kts | 244° |
| 2026-05-05 03:25 | 39.34829 | -112.38068 | 35706 ft | 398 kts | 244° |
| 2026-05-05 03:26 | 39.26080 | -112.64350 | 35562 ft | 402 kts | 251° |
| 2026-05-05 03:26 | 39.20763 | -112.92354 | 35781 ft | 398 kts | 255° |
| 2026-05-05 03:26 | 39.14392 | -113.21370 | 35714 ft | 399 kts | 251° |
| 2026-05-05 03:27 | 39.08104 | -113.48835 | 35741 ft | 401 kts | 251° |
| 2026-05-05 03:27 | 39.01761 | -113.76286 | 35746 ft | 404 kts | 251° |
| 2026-05-05 03:28 | 38.95265 | -114.04049 | 35754 ft | 405 kts | 251° |
| 2026-05-05 03:28 | 38.88687 | -114.31834 | 35753 ft | 408 kts | 251° |
| 2026-05-05 03:29 | 38.83421 | -114.53842 | 35753 ft | 410 kts | 251° |
| 2026-05-05 03:29 | 38.81601 | -114.61396 | 35771 ft | 410 kts | 251° |
| 2026-05-05 03:30 | 38.79913 | -114.68387 | 35755 ft | 410 kts | 250° |
| 2026-05-05 03:30 | 38.78222 | -114.75369 | 35763 ft | 410 kts | 250° |
| 2026-05-05 03:31 | 38.76524 | -114.82358 | 35760 ft | 410 kts | 250° |
| 2026-05-05 03:31 | 38.74824 | -114.89338 | 35759 ft | 410 kts | 250° |
| 2026-05-05 03:32 | 38.73122 | -114.96299 | 35764 ft | 410 kts | 250° |
| 2026-05-05 03:32 | 38.71425 | -115.03226 | 35758 ft | 410 kts | 250° |
| 2026-05-05 03:33 | 38.69711 | -115.10201 | 35756 ft | 410 kts | 250° |
| 2026-05-05 03:33 | 38.67996 | -115.17158 | 35744 ft | 410 kts | 250° |
| 2026-05-05 03:34 | 38.66278 | -115.24108 | 35744 ft | 409 kts | 250° |
| 2026-05-05 03:34 | 38.64557 | -115.31050 | 35733 ft | 409 kts | 250° |
| 2026-05-05 03:35 | 38.62836 | -115.37977 | 35741 ft | 409 kts | 250° |
| 2026-05-05 03:35 | 38.61107 | -115.44910 | 35751 ft | 409 kts | 250° |
| 2026-05-05 03:36 | 38.59374 | -115.51839 | 35750 ft | 409 kts | 250° |
| 2026-05-05 03:36 | 38.57645 | -115.58737 | 35749 ft | 410 kts | 250° |
| 2026-05-05 03:37 | 38.55902 | -115.65672 | 35751 ft | 410 kts | 250° |
| 2026-05-05 03:37 | 38.54153 | -115.72608 | 35748 ft | 410 kts | 250° |
| 2026-05-05 03:38 | 38.52395 | -115.79558 | 35744 ft | 411 kts | 249° |
| 2026-05-05 03:38 | 38.50636 | -115.86496 | 35747 ft | 410 kts | 249° |
| 2026-05-05 03:39 | 38.48875 | -115.93422 | 35764 ft | 410 kts | 249° |
| 2026-05-05 03:39 | 38.46630 | -116.02224 | 35772 ft | 412 kts | 249° |
| 2026-05-05 03:40 | 38.43071 | -116.16120 | 35770 ft | 413 kts | 249° |
| 2026-05-05 03:40 | 38.39470 | -116.30064 | 35779 ft | 414 kts | 249° |
| 2026-05-05 03:41 | 38.35835 | -116.44054 | 35787 ft | 415 kts | 249° |
| 2026-05-05 03:41 | 38.32210 | -116.57938 | 35798 ft | 417 kts | 249° |
| 2026-05-05 03:42 | 38.28524 | -116.71976 | 35805 ft | 418 kts | 249° |
| 2026-05-05 03:42 | 38.24807 | -116.86052 | 35837 ft | 419 kts | 249° |
| 2026-05-05 03:43 | 38.21984 | -116.96692 | 35870 ft | 421 kts | 249° |
| 2026-05-05 03:43 | 38.20103 | -117.03760 | 35892 ft | 421 kts | 249° |
| 2026-05-05 03:44 | 38.18230 | -117.10774 | 35892 ft | 422 kts | 249° |
| 2026-05-05 03:44 | 38.16325 | -117.17888 | 35902 ft | 423 kts | 249° |
| 2026-05-05 03:45 | 38.15387 | -117.21384 | 35794 ft | 423 kts | 249° |
| 2026-05-05 03:45 | 38.14438 | -117.24921 | 35794 ft | 424 kts | 249° |
| 2026-05-05 03:45 | 38.12528 | -117.32014 | 35789 ft | 425 kts | 249° |
| 2026-05-05 03:46 | 38.10609 | -117.39124 | 35790 ft | 426 kts | 249° |
| 2026-05-05 03:46 | 38.08686 | -117.46232 | 35798 ft | 426 kts | 249° |
| 2026-05-05 03:47 | 38.06750 | -117.53363 | 35790 ft | 428 kts | 249° |
| 2026-05-05 03:47 | 38.04807 | -117.60504 | 35813 ft | 428 kts | 249° |
| 2026-05-05 03:48 | 38.02856 | -117.67659 | 35791 ft | 430 kts | 249° |
| 2026-05-05 03:48 | 38.00892 | -117.74840 | 35808 ft | 431 kts | 250° |
| 2026-05-05 03:49 | 37.99661 | -117.82294 | 35851 ft | 433 kts | 261° |
| 2026-05-05 03:49 | 37.98926 | -117.89851 | 35811 ft | 435 kts | 261° |
| 2026-05-05 03:50 | 37.98161 | -117.97465 | 35807 ft | 435 kts | 260° |
| 2026-05-05 03:50 | 37.97368 | -118.05070 | 35803 ft | 435 kts | 260° |
| 2026-05-05 03:51 | 37.96561 | -118.12683 | 35816 ft | 437 kts | 261° |
| 2026-05-05 03:51 | 37.95746 | -118.20311 | 35827 ft | 437 kts | 260° |
| 2026-05-05 03:52 | 37.94925 | -118.27961 | 35843 ft | 438 kts | 260° |
| 2026-05-05 03:52 | 37.94104 | -118.35571 | 35848 ft | 439 kts | 260° |
| 2026-05-05 03:53 | 37.93270 | -118.43246 | 35857 ft | 440 kts | 260° |
| 2026-05-05 03:53 | 37.92430 | -118.50935 | 35847 ft | 441 kts | 261° |
| 2026-05-05 03:54 | 37.91582 | -118.58647 | 35861 ft | 443 kts | 261° |
| 2026-05-05 03:54 | 37.90727 | -118.66380 | 35895 ft | 444 kts | 261° |
| 2026-05-05 03:55 | 37.89864 | -118.74146 | 35916 ft | 446 kts | 261° |
| 2026-05-05 03:55 | 37.88985 | -118.81954 | 35933 ft | 448 kts | 260° |
| 2026-05-05 03:56 | 37.88098 | -118.89731 | 35930 ft | 450 kts | 261° |
| 2026-05-05 03:56 | 37.87197 | -118.97602 | 35948 ft | 452 kts | 261° |
| 2026-05-05 03:57 | 37.86290 | -119.05488 | 35941 ft | 454 kts | 261° |
| 2026-05-05 03:57 | 37.85375 | -119.13396 | 35952 ft | 454 kts | 261° |
| 2026-05-05 03:58 | 37.84455 | -119.21305 | 35950 ft | 455 kts | 260° |
| 2026-05-05 03:58 | 37.83526 | -119.29227 | 35970 ft | 455 kts | 261° |
| 2026-05-05 03:59 | 37.82604 | -119.37048 | 35665 ft | 443 kts | 261° |
| 2026-05-05 03:59 | 37.82146 | -119.40916 | 34981 ft | 447 kts | 261° |
| 2026-05-05 03:59 | 37.81682 | -119.44826 | 34262 ft | 452 kts | 261° |
| 2026-05-05 04:00 | 37.81215 | -119.48752 | 33866 ft | 449 kts | 262° |
| 2026-05-05 04:00 | 37.80752 | -119.52629 | 33517 ft | 443 kts | 262° |
| 2026-05-05 04:00 | 37.80292 | -119.56469 | 32951 ft | 443 kts | 262° |
| 2026-05-05 04:00 | 37.79984 | -119.59032 | 32431 ft | 447 kts | 263° |
| 2026-05-05 04:01 | 37.79513 | -119.62951 | 31687 ft | 453 kts | 263° |
| 2026-05-05 04:01 | 37.79039 | -119.66883 | 31289 ft | 451 kts | 263° |
| 2026-05-05 04:01 | 37.78564 | -119.70808 | 30753 ft | 452 kts | 263° |
| 2026-05-05 04:01 | 37.78087 | -119.74738 | 30401 ft | 449 kts | 264° |
| 2026-05-05 04:02 | 37.77611 | -119.78648 | 29891 ft | 450 kts | 264° |
| 2026-05-05 04:02 | 37.77136 | -119.82547 | 29465 ft | 447 kts | 264° |
| 2026-05-05 04:02 | 37.76661 | -119.86422 | 28994 ft | 445 kts | 264° |
| 2026-05-05 04:02 | 37.76190 | -119.90263 | 28641 ft | 441 kts | 264° |
| 2026-05-05 04:03 | 37.75720 | -119.94081 | 28197 ft | 438 kts | 264° |
| 2026-05-05 04:03 | 37.75251 | -119.97878 | 27813 ft | 434 kts | 264° |
| 2026-05-05 04:03 | 37.74792 | -120.01588 | 27408 ft | 432 kts | 264° |
| 2026-05-05 04:03 | 37.74327 | -120.05340 | 26980 ft | 431 kts | 263° |
| 2026-05-05 04:04 | 37.73863 | -120.09075 | 26572 ft | 429 kts | 263° |
| 2026-05-05 04:04 | 37.73400 | -120.12791 | 26184 ft | 427 kts | 263° |
| 2026-05-05 04:04 | 37.72936 | -120.16503 | 25783 ft | 425 kts | 263° |
| 2026-05-05 04:04 | 37.72475 | -120.20184 | 25389 ft | 424 kts | 263° |
| 2026-05-05 04:05 | 37.72013 | -120.23857 | 24995 ft | 422 kts | 263° |
| 2026-05-05 04:05 | 37.71552 | -120.27517 | 24607 ft | 420 kts | 263° |
| 2026-05-05 04:05 | 37.71093 | -120.31156 | 24212 ft | 419 kts | 263° |
| 2026-05-05 04:05 | 37.70633 | -120.34794 | 23820 ft | 418 kts | 263° |
| 2026-05-05 04:06 | 37.70175 | -120.38406 | 23380 ft | 417 kts | 263° |
| 2026-05-05 04:06 | 37.69721 | -120.42015 | 22928 ft | 415 kts | 263° |
| 2026-05-05 04:06 | 37.69301 | -120.45560 | 22520 ft | 412 kts | 263° |
| 2026-05-05 04:06 | 37.68889 | -120.49136 | 22108 ft | 409 kts | 263° |
| 2026-05-05 04:07 | 37.68486 | -120.52652 | 21713 ft | 401 kts | 263° |
| 2026-05-05 04:07 | 37.68087 | -120.56105 | 21355 ft | 392 kts | 263° |
| 2026-05-05 04:07 | 37.67692 | -120.59497 | 20970 ft | 390 kts | 263° |
| 2026-05-05 04:07 | 37.67297 | -120.62882 | 20588 ft | 388 kts | 263° |
| 2026-05-05 04:08 | 37.66901 | -120.66252 | 20218 ft | 386 kts | 263° |
| 2026-05-05 04:08 | 37.66507 | -120.69599 | 19849 ft | 385 kts | 263° |
| 2026-05-05 04:08 | 37.66112 | -120.72931 | 19479 ft | 383 kts | 263° |
| 2026-05-05 04:08 | 37.65717 | -120.76254 | 19107 ft | 382 kts | 263° |
| 2026-05-05 04:09 | 37.65326 | -120.79516 | 18746 ft | 380 kts | 263° |
| 2026-05-05 04:09 | 37.64929 | -120.82813 | 18380 ft | 379 kts | 263° |
| 2026-05-05 04:09 | 37.64536 | -120.86069 | 17945 ft | 372 kts | 263° |
| 2026-05-05 04:09 | 37.64151 | -120.89258 | 17549 ft | 363 kts | 262° |
| 2026-05-05 04:10 | 37.63774 | -120.92366 | 17209 ft | 353 kts | 262° |
| 2026-05-05 04:10 | 37.63407 | -120.95397 | 16822 ft | 346 kts | 262° |
| 2026-05-05 04:10 | 37.63031 | -120.98368 | 16461 ft | 339 kts | 262° |
| 2026-05-05 04:10 | 37.62645 | -121.01264 | 16125 ft | 332 kts | 262° |
| 2026-05-05 04:11 | 37.62259 | -121.04125 | 15808 ft | 331 kts | 262° |
| 2026-05-05 04:11 | 37.61874 | -121.06989 | 15472 ft | 330 kts | 262° |
| 2026-05-05 04:11 | 37.61489 | -121.09848 | 15138 ft | 330 kts | 262° |
| 2026-05-05 04:11 | 37.61106 | -121.12703 | 14811 ft | 330 kts | 262° |
| 2026-05-05 04:12 | 37.60727 | -121.15526 | 14466 ft | 330 kts | 262° |
| 2026-05-05 04:12 | 37.60343 | -121.18382 | 14131 ft | 330 kts | 261° |
| 2026-05-05 04:12 | 37.59958 | -121.21244 | 13794 ft | 330 kts | 261° |
| 2026-05-05 04:12 | 37.59573 | -121.24098 | 13410 ft | 330 kts | 261° |
| 2026-05-05 04:13 | 37.59189 | -121.26951 | 13038 ft | 330 kts | 262° |
| 2026-05-05 04:13 | 37.58846 | -121.29796 | 12799 ft | 325 kts | 263° |
| 2026-05-05 04:13 | 37.58525 | -121.32614 | 12443 ft | 325 kts | 263° |
| 2026-05-05 04:13 | 37.58208 | -121.35444 | 12084 ft | 326 kts | 263° |
| 2026-05-05 04:14 | 37.57889 | -121.38263 | 11756 ft | 325 kts | 263° |
| 2026-05-05 04:14 | 37.57543 | -121.41291 | 11371 ft | 325 kts | 263° |
| 2026-05-05 04:14 | 37.56249 | -121.52483 | 10192 ft | 316 kts | 263° |
| 2026-05-05 04:14 | 37.55036 | -121.62767 | 9750 ft | 271 kts | 261° |
| 2026-05-05 04:15 | 37.52951 | -121.71524 | 8402 ft | 260 kts | 253° |
| 2026-05-05 04:15 | 37.52139 | -121.74809 | 7848 ft | 267 kts | 253° |
| 2026-05-05 04:15 | 37.51599 | -121.77050 | 7570 ft | 266 kts | 253° |
| 2026-05-05 04:15 | 37.51067 | -121.79269 | 7308 ft | 263 kts | 253° |
| 2026-05-05 04:16 | 37.50540 | -121.81466 | 7028 ft | 261 kts | 253° |
| 2026-05-05 04:16 | 37.50019 | -121.83638 | 6762 ft | 258 kts | 252° |
| 2026-05-05 04:16 | 37.49503 | -121.85789 | 6497 ft | 255 kts | 252° |
| 2026-05-05 04:16 | 37.49148 | -121.87963 | 6139 ft | 255 kts | 272° |
| 2026-05-05 04:17 | 37.49442 | -121.90132 | 5999 ft | 246 kts | 281° |
| 2026-05-05 04:17 | 37.49779 | -121.92236 | 5683 ft | 243 kts | 279° |
| 2026-05-05 04:17 | 37.50099 | -121.94286 | 5453 ft | 234 kts | 279° |
| 2026-05-05 04:17 | 37.50400 | -121.96227 | 5202 ft | 225 kts | 279° |
| 2026-05-05 04:18 | 37.50692 | -121.98125 | 4966 ft | 217 kts | 279° |
| 2026-05-05 04:18 | 37.50974 | -121.99962 | 4722 ft | 209 kts | 279° |
| 2026-05-05 04:18 | 37.51242 | -122.01723 | 4515 ft | 200 kts | 279° |
| 2026-05-05 04:18 | 37.51501 | -122.03414 | 4311 ft | 194 kts | 279° |
| 2026-05-05 04:19 | 37.51752 | -122.05075 | 4128 ft | 192 kts | 279° |
| 2026-05-05 04:19 | 37.52000 | -122.06722 | 3944 ft | 191 kts | 279° |
| 2026-05-05 04:19 | 37.52250 | -122.08381 | 3838 ft | 199 kts | 280° |
| 2026-05-05 04:19 | 37.52517 | -122.10110 | 3854 ft | 199 kts | 281° |
| 2026-05-05 04:20 | 37.52772 | -122.11792 | 3756 ft | 190 kts | 280° |
| 2026-05-05 04:20 | 37.53011 | -122.13390 | 3527 ft | 183 kts | 281° |
| 2026-05-05 04:20 | 37.53240 | -122.14915 | 3291 ft | 177 kts | 280° |
| 2026-05-05 04:20 | 37.53469 | -122.16428 | 3006 ft | 173 kts | 282° |
| 2026-05-05 04:21 | 37.53860 | -122.17795 | 3019 ft | 159 kts | 295° |
| 2026-05-05 04:21 | 37.54381 | -122.19071 | 3013 ft | 176 kts | 296° |
| 2026-05-05 04:21 | 37.54972 | -122.20481 | 2731 ft | 179 kts | 297° |
| 2026-05-05 04:21 | 37.55519 | -122.21787 | 2488 ft | 160 kts | 297° |
| 2026-05-05 04:22 | 37.56025 | -122.22994 | 2299 ft | 152 kts | 297° |
| 2026-05-05 04:22 | 37.56506 | -122.24145 | 2135 ft | 143 kts | 297° |
| 2026-05-05 04:22 | 37.56966 | -122.25246 | 1904 ft | 138 kts | 297° |
| 2026-05-05 04:22 | 37.57413 | -122.26315 | 1725 ft | 137 kts | 297° |
| 2026-05-05 04:23 | 37.57849 | -122.27355 | 1554 ft | 131 kts | 297° |
| 2026-05-05 04:23 | 37.58272 | -122.28366 | 1376 ft | 130 kts | 297° |
| 2026-05-05 04:23 | 37.58690 | -122.29366 | 1218 ft | 132 kts | 297° |
| 2026-05-05 04:23 | 37.59126 | -122.30406 | 1022 ft | 134 kts | 296° |
| 2026-05-05 04:24 | 37.59554 | -122.31427 | 845 ft | 128 kts | 297° |
| 2026-05-05 04:24 | 37.59964 | -122.32417 | 623 ft | 127 kts | 297° |
| 2026-05-05 04:24 | 37.60362 | -122.33397 | 485 ft | 124 kts | 296° |
| 2026-05-05 04:25 | 37.61154 | -122.35276 | 218 ft | 120 kts | 298° |
| 2026-05-05 04:25 | 37.61547 | -122.36226 | 103 ft | 124 kts | 298° |
| 2026-05-05 04:25 | 37.61939 | -122.37167 | 31 ft | 119 kts | 298° |
| 2026-05-05 04:25 | 37.62288 | -122.37974 | 22 ft | 82 kts | 297° |
| 2026-05-05 04:26 | 37.62461 | -122.38390 | 21 ft | 38 kts | 297° |
| 2026-05-05 04:26 | 37.62510 | -122.38635 | 18 ft | 22 kts | 266° |
| 2026-05-05 04:26 | 37.62488 | -122.38825 | 18 ft | 22 kts | 261° |
| 2026-05-05 04:26 | 37.62440 | -122.38920 | 17 ft | 11 kts | 193° |
| 2026-05-05 04:27 | 37.62364 | -122.38927 | 15 ft | 11 kts | 189° |
| 2026-05-05 04:27 | 37.62297 | -122.38971 | 14 ft | 11 kts | 214° |
| 2026-05-05 04:27 | 37.62239 | -122.39028 | 16 ft | 10 kts | 238° |
| 2026-05-05 04:27 | 37.62211 | -122.39092 | 17 ft | 5 kts | 171° |
| 2026-05-05 04:28 | 37.62184 | -122.39068 | 16 ft | 5 kts | 144° |
| 2026-05-05 04:28 | 37.62166 | -122.39055 | 17 ft | 0 kts | 160° |